createdAt,value
2018-07-10T00:02:31.698Z,16.40
2018-07-10T00:07:18.538Z,16.40
2018-07-10T00:11:59.009Z,16.30
2018-07-10T00:14:27.487Z,16.10
2018-07-10T00:16:55.945Z,16.10
2018-07-10T00:21:52.574Z,16.20
2018-07-10T00:24:21.099Z,16.10
2018-07-10T00:26:49.966Z,15.90
2018-07-10T00:29:18.469Z,15.70
2018-07-10T00:31:46.963Z,15.50
2018-07-10T00:34:15.544Z,15.40
2018-07-10T00:36:44.383Z,15.30
2018-07-10T00:39:12.973Z,14.90
2018-07-10T00:41:42.097Z,15.00
2018-07-10T00:44:10.646Z,15.00
2018-07-10T00:49:08.364Z,14.90
2018-07-10T00:51:39.446Z,15.00
2018-07-10T00:54:08.517Z,14.90
2018-07-10T00:56:37.051Z,14.90
2018-07-10T00:59:06.923Z,14.90
2018-07-10T01:01:35.967Z,14.90
2018-07-10T01:04:04.470Z,14.80
2018-07-10T01:06:32.970Z,14.90
2018-07-10T01:09:01.449Z,14.90
2018-07-10T01:13:58.044Z,14.70
2018-07-10T01:16:30.144Z,14.70
2018-07-10T01:21:27.893Z,14.70
2018-07-10T01:24:02.427Z,14.70
2018-07-10T01:26:34.581Z,14.70
2018-07-10T01:29:08.005Z,14.70
2018-07-10T01:31:37.209Z,14.80
2018-07-10T01:34:05.700Z,14.70
2018-07-10T01:36:34.244Z,14.70
2018-07-10T01:41:30.902Z,14.70
2018-07-10T01:43:59.437Z,14.80
2018-07-10T01:46:28.280Z,14.70
2018-07-10T01:48:56.772Z,14.70
2018-07-10T01:51:25.251Z,14.70
2018-07-10T01:53:53.670Z,14.70
2018-07-10T01:56:22.200Z,14.60
2018-07-10T01:58:50.920Z,14.50
2018-07-10T02:01:22.267Z,14.60
2018-07-10T02:03:50.791Z,14.70
2018-07-10T02:06:19.297Z,14.50
2018-07-10T02:08:47.829Z,14.50
2018-07-10T02:28:38.045Z,14.40
2018-07-10T02:31:06.573Z,14.40
2018-07-10T02:33:35.099Z,14.30
2018-07-10T02:36:04.138Z,14.20
2018-07-10T02:38:33.080Z,14.20
2018-07-10T02:41:01.604Z,14.20
2018-07-10T02:43:30.144Z,14.20
2018-07-10T02:45:58.772Z,14.10
2018-07-10T02:48:31.093Z,14.20
2018-07-10T02:51:00.907Z,14.10
2018-07-10T02:53:30.550Z,14.10
2018-07-10T02:55:59.111Z,14.10
2018-07-10T02:58:28.645Z,14.20
2018-07-10T03:00:57.478Z,14.10
2018-07-10T03:03:26.488Z,14.10
2018-07-10T03:05:55.017Z,14.00
2018-07-10T03:08:23.549Z,14.00
2018-07-10T03:10:52.075Z,14.10
2018-07-10T03:13:20.554Z,14.10
2018-07-10T03:15:49.079Z,14.00
2018-07-10T03:18:17.574Z,14.10
2018-07-10T03:20:46.098Z,14.00
2018-07-10T03:23:14.583Z,14.00
2018-07-10T03:25:43.095Z,14.00
2018-07-10T03:28:11.678Z,14.00
2018-07-10T03:30:40.217Z,14.00
2018-07-10T03:33:08.722Z,14.00
2018-07-10T03:35:37.250Z,14.00
2018-07-10T03:38:05.759Z,14.00
2018-07-10T03:40:34.265Z,14.00
2018-07-10T03:43:02.841Z,14.00
2018-07-10T03:45:31.306Z,13.80
2018-07-10T03:47:59.949Z,13.90
2018-07-10T03:50:28.715Z,13.90
2018-07-10T03:52:57.708Z,13.90
2018-07-10T03:55:26.209Z,13.90
2018-07-10T03:57:55.815Z,13.90
2018-07-10T04:00:24.728Z,13.80
2018-07-10T04:02:53.778Z,13.80
2018-07-10T04:05:23.428Z,13.80
2018-07-10T04:07:54.251Z,13.80
2018-07-10T04:10:28.849Z,13.80
2018-07-10T04:12:58.474Z,13.80
2018-07-10T04:15:26.963Z,13.70
2018-07-10T04:17:59.374Z,13.80
2018-07-10T04:20:31.486Z,13.90
2018-07-10T04:23:00.033Z,13.90
2018-07-10T04:25:33.784Z,13.80
2018-07-10T04:28:07.129Z,13.70
2018-07-10T04:30:42.475Z,13.80
2018-07-10T04:33:11.182Z,13.80
2018-07-10T04:35:40.006Z,13.80
2018-07-10T04:38:08.544Z,13.80
2018-07-10T04:40:37.133Z,13.80
2018-07-10T04:43:09.223Z,13.80
2018-07-10T04:45:40.278Z,13.80
2018-07-10T04:48:48.536Z,13.80
2018-07-10T04:51:29.871Z,13.70
2018-07-10T04:54:05.583Z,13.60
2018-07-10T04:56:34.140Z,13.70
2018-07-10T04:59:02.979Z,13.70
2018-07-10T05:01:34.943Z,13.70
2018-07-10T05:04:03.985Z,13.80
2018-07-10T05:06:35.230Z,13.80
2018-07-10T05:09:04.815Z,13.80
2018-07-10T05:11:35.521Z,13.80
2018-07-10T05:14:04.670Z,13.70
2018-07-10T05:16:33.962Z,13.70
2018-07-10T05:19:02.487Z,13.80
2018-07-10T05:21:31.004Z,13.70
2018-07-10T05:23:59.521Z,13.80
2018-07-10T05:26:28.031Z,13.80
2018-07-10T05:28:56.678Z,13.90
2018-07-10T05:31:25.320Z,13.90
2018-07-10T05:33:54.000Z,13.90
2018-07-10T05:36:24.070Z,13.70
2018-07-10T05:38:58.287Z,13.70
2018-07-10T05:41:26.835Z,13.80
2018-07-10T05:43:55.460Z,13.70
2018-07-10T05:46:25.123Z,13.60
2018-07-10T05:48:55.723Z,13.60
2018-07-10T05:51:25.730Z,13.70
2018-07-10T05:53:54.241Z,13.70
2018-07-10T05:56:22.786Z,13.70
2018-07-10T05:58:51.720Z,13.70
2018-07-10T06:01:20.399Z,14.00
2018-07-10T06:03:48.899Z,14.10
2018-07-10T06:06:17.448Z,14.00
2018-07-10T06:08:46.326Z,14.00
2018-07-10T06:11:14.858Z,14.20
2018-07-10T06:13:43.448Z,14.20
2018-07-10T06:16:12.358Z,14.10
2018-07-10T06:18:41.203Z,14.00
2018-07-10T06:21:09.713Z,14.20
2018-07-10T06:23:40.751Z,14.00
2018-07-10T06:26:09.447Z,13.90
2018-07-10T06:28:39.291Z,13.90
2018-07-10T06:31:11.571Z,14.00
2018-07-10T06:33:51.358Z,14.10
2018-07-10T06:36:30.626Z,14.10
2018-07-10T06:39:13.628Z,14.00
2018-07-10T06:42:15.635Z,14.10
2018-07-10T06:44:47.306Z,14.20
2018-07-10T06:47:23.272Z,14.40
2018-07-10T06:49:51.812Z,14.40
2018-07-10T06:52:21.535Z,14.50
2018-07-10T06:55:06.400Z,14.60
2018-07-10T06:57:36.462Z,14.70
2018-07-10T07:00:07.681Z,14.60
2018-07-10T07:02:37.349Z,14.70
2018-07-10T07:05:06.245Z,14.60
2018-07-10T07:07:35.988Z,14.80
2018-07-10T07:10:05.875Z,14.70
2018-07-10T07:12:35.856Z,14.80
2018-07-10T07:15:06.277Z,14.70
2018-07-10T07:17:35.859Z,14.80
2018-07-10T07:20:04.900Z,15.00
2018-07-10T07:22:34.345Z,15.10
2018-07-10T07:25:04.038Z,14.80
2018-07-10T07:27:32.866Z,14.70
2018-07-10T07:30:02.471Z,14.80
2018-07-10T07:32:33.261Z,14.80
2018-07-10T07:35:03.608Z,14.80
2018-07-10T07:37:37.853Z,14.70
2018-07-10T07:40:09.505Z,14.90
2018-07-10T07:42:39.417Z,15.50
2018-07-10T07:45:10.993Z,15.90
2018-07-10T07:47:42.181Z,16.40
2018-07-10T07:50:12.919Z,16.20
2018-07-10T07:52:43.971Z,16.60
2018-07-10T07:55:15.267Z,16.30
2018-07-10T07:57:46.672Z,17.00
2018-07-10T08:00:18.074Z,17.10
2018-07-10T08:02:46.692Z,16.90
2018-07-10T08:05:15.216Z,17.00
2018-07-10T08:07:44.151Z,17.00
2018-07-10T08:10:12.851Z,17.20
2018-07-10T08:12:41.436Z,18.00
2018-07-10T08:15:10.633Z,17.20
2018-07-10T08:17:39.198Z,16.50
2018-07-10T08:20:07.711Z,16.40
2018-07-10T08:22:37.012Z,16.10
2018-07-10T08:25:06.417Z,16.50
2018-07-10T08:27:36.608Z,16.50
2018-07-10T08:30:05.312Z,16.70
2018-07-10T08:32:34.032Z,16.80
2018-07-10T08:35:02.557Z,16.70
2018-07-10T08:37:31.081Z,17.20
2018-07-10T08:39:59.591Z,16.90
2018-07-10T08:42:28.574Z,17.00
2018-07-10T08:44:57.336Z,17.10
2018-07-10T08:47:25.901Z,17.40
2018-07-10T08:49:55.329Z,16.60
2018-07-10T08:52:24.577Z,16.10
2018-07-10T08:54:53.300Z,16.10
2018-07-10T08:57:22.453Z,16.00
2018-07-10T08:59:51.021Z,15.80
2018-07-10T09:02:19.758Z,16.10
2018-07-10T09:04:48.467Z,16.10
2018-07-10T09:07:17.090Z,16.00
2018-07-10T09:09:45.584Z,16.10
2018-07-10T09:12:15.507Z,16.30
2018-07-10T09:14:44.368Z,16.10
2018-07-10T09:17:12.973Z,16.10
2018-07-10T09:19:41.830Z,15.70
2018-07-10T09:22:12.333Z,16.10
2018-07-10T09:24:48.600Z,16.00
2018-07-10T09:27:19.550Z,16.10
2018-07-10T09:29:48.734Z,16.30
2018-07-10T09:32:23.575Z,16.50
2018-07-10T09:34:52.554Z,17.00
2018-07-10T09:37:26.731Z,17.00
2018-07-10T09:40:00.437Z,16.80
2018-07-10T09:42:30.500Z,16.40
2018-07-10T09:45:01.370Z,16.90
2018-07-10T09:47:29.910Z,16.90
2018-07-10T09:49:58.453Z,17.50
2018-07-10T09:52:26.999Z,17.70
2018-07-10T09:54:55.609Z,17.70
2018-07-10T09:57:24.273Z,18.00
2018-07-10T09:59:52.801Z,18.00
2018-07-10T10:02:26.678Z,18.10
2018-07-10T10:04:55.338Z,18.50
2018-07-10T10:07:23.805Z,17.70
2018-07-10T10:09:52.343Z,17.60
2018-07-10T10:12:20.836Z,17.10
2018-07-10T10:14:49.412Z,17.50
2018-07-10T10:17:18.216Z,17.50
2018-07-10T10:19:46.800Z,17.30
2018-07-10T11:16:39.342Z,16.50
2018-07-10T11:19:13.764Z,16.50
2018-07-10T11:22:16.845Z,16.40
2018-07-10T11:25:02.632Z,16.40
2018-07-10T11:28:07.717Z,16.30
2018-07-10T11:30:36.785Z,16.40
2018-07-10T11:33:06.465Z,16.40
2018-07-10T11:35:35.758Z,16.40
2018-07-10T11:38:07.147Z,16.60
2018-07-10T11:40:36.402Z,16.50
2018-07-10T11:43:06.280Z,16.40
2018-07-10T11:45:34.891Z,16.40
2018-07-10T11:48:03.559Z,16.10
2018-07-10T11:50:32.289Z,16.30
2018-07-10T11:53:01.173Z,16.50
2018-07-10T11:55:29.817Z,16.70
2018-07-10T11:57:58.402Z,16.50
2018-07-10T12:00:26.978Z,16.20
2018-07-10T12:02:57.767Z,16.60
2018-07-10T12:05:32.872Z,16.60
2018-07-10T12:08:01.504Z,17.00
2018-07-10T12:10:31.391Z,17.50
2018-07-10T12:13:00.068Z,17.30
2018-07-10T12:15:28.611Z,17.00
2018-07-10T12:17:57.966Z,17.00
2018-07-10T12:20:42.842Z,16.90
2018-07-10T12:23:12.084Z,16.70
2018-07-10T12:25:45.164Z,16.70
2018-07-10T12:28:14.926Z,16.30
2018-07-10T12:30:43.477Z,16.30
2018-07-10T12:33:12.050Z,16.50
2018-07-10T12:35:40.631Z,16.50
2018-07-10T12:38:11.524Z,16.60
2018-07-10T12:40:40.019Z,16.60
2018-07-10T12:43:08.543Z,16.50
2018-07-10T12:45:37.068Z,16.50
2018-07-10T12:48:05.639Z,16.30
2018-07-10T12:50:34.166Z,16.40
2018-07-10T12:53:02.957Z,16.30
2018-07-10T12:55:33.194Z,16.30
2018-07-10T12:58:01.855Z,16.20
2018-07-10T13:00:31.984Z,16.30
2018-07-10T13:03:00.693Z,16.00
2018-07-10T13:07:58.787Z,16.20
2018-07-10T13:10:27.357Z,16.10
2018-07-10T13:12:55.852Z,16.00
2018-07-10T13:15:24.385Z,16.10
2018-07-10T13:17:52.887Z,16.00
2018-07-10T13:20:21.397Z,16.00
2018-07-10T13:22:50.082Z,15.60
2018-07-10T13:25:18.658Z,15.50
2018-07-10T13:27:48.537Z,15.60
2018-07-10T13:35:13.470Z,15.90
2018-07-10T13:37:44.506Z,15.90
2018-07-10T13:40:13.323Z,16.00
2018-07-10T13:43:00.263Z,16.00
2018-07-10T13:45:31.623Z,15.90
2018-07-10T13:48:00.211Z,15.90
2018-07-10T13:50:30.685Z,16.00
2018-07-10T13:53:02.568Z,15.80
2018-07-10T13:55:31.653Z,15.80
2018-07-10T13:58:09.300Z,15.90
2018-07-10T14:00:41.918Z,15.90
2018-07-10T14:05:39.179Z,16.00
2018-07-10T14:08:07.669Z,16.10
2018-07-10T14:10:36.213Z,16.30
2018-07-10T14:13:05.658Z,16.40
2018-07-10T14:18:02.957Z,16.20
2018-07-10T14:20:36.317Z,15.90
2018-07-10T14:23:04.856Z,16.30
2018-07-10T14:25:33.372Z,16.80
2018-07-10T14:28:02.122Z,17.10
2018-07-10T14:30:30.638Z,17.10
2018-07-10T14:32:59.351Z,17.10
2018-07-10T14:35:28.011Z,17.10
2018-07-10T14:40:25.125Z,16.80
2018-07-10T14:42:53.689Z,16.80
2018-07-10T14:45:22.304Z,16.50
2018-07-10T14:47:50.850Z,16.50
2018-07-10T14:50:21.472Z,16.70
2018-07-10T14:52:50.065Z,16.90
2018-07-10T14:55:18.922Z,17.10
2018-07-10T14:57:47.570Z,16.70
2018-07-10T15:02:44.212Z,16.70
2018-07-10T15:05:12.730Z,16.60
2018-07-10T15:07:41.254Z,16.70
2018-07-10T15:10:10.071Z,16.60
2018-07-10T15:20:53.362Z,16.20
2018-07-10T15:23:21.839Z,16.00
2018-07-10T15:25:50.562Z,15.50
2018-07-10T15:28:19.371Z,15.60
2018-07-10T15:30:47.911Z,15.50
2018-07-10T15:33:16.595Z,15.40
2018-07-10T15:35:45.472Z,15.20
2018-07-10T15:38:13.950Z,15.20
2018-07-10T15:40:42.520Z,15.20
2018-07-10T15:43:11.380Z,15.20
2018-07-10T15:45:40.215Z,15.00
2018-07-10T15:48:08.787Z,15.00
2018-07-10T15:50:37.295Z,15.00
2018-07-10T15:53:05.869Z,15.10
2018-07-10T15:55:34.599Z,15.10
2018-07-10T15:58:03.154Z,15.20
2018-07-10T16:00:31.630Z,15.20
2018-07-10T16:03:00.750Z,15.30
2018-07-10T16:05:29.297Z,15.20
2018-07-10T16:08:09.979Z,15.20
2018-07-10T16:10:38.561Z,15.20
2018-07-10T16:13:07.106Z,15.20
2018-07-10T16:15:35.608Z,15.20
2018-07-10T16:18:04.169Z,15.20
2018-07-10T16:20:35.301Z,15.10
2018-07-10T16:23:04.737Z,15.10
2018-07-10T16:25:33.898Z,15.00
2018-07-10T16:28:07.774Z,15.00
2018-07-10T16:30:36.313Z,14.90
2018-07-10T16:33:04.864Z,15.00
2018-07-10T16:35:33.409Z,15.10
2018-07-10T16:38:03.501Z,15.30
2018-07-10T16:40:32.047Z,15.30
2018-07-10T16:43:00.965Z,15.30
2018-07-10T16:45:33.568Z,15.30
2018-07-10T16:48:21.884Z,15.40
2018-07-10T16:51:01.678Z,15.40
2018-07-10T16:53:34.356Z,15.00
2018-07-10T16:56:03.010Z,15.30
2018-07-10T16:58:35.080Z,15.30
2018-07-10T17:01:03.816Z,15.10
2018-07-10T17:03:32.370Z,15.20
2018-07-10T17:08:30.914Z,15.30
2018-07-10T17:10:59.761Z,15.50
2018-07-10T17:13:28.597Z,15.60
2018-07-10T17:15:57.124Z,15.50
2018-07-10T17:18:25.688Z,15.40
2018-07-10T17:20:54.183Z,15.30
2018-07-10T17:23:22.833Z,15.20
2018-07-10T17:25:51.402Z,15.30
2018-07-10T17:28:20.469Z,15.30
2018-07-10T17:30:49.097Z,15.30
2018-07-10T17:33:17.666Z,15.30
2018-07-10T17:35:46.161Z,15.20
2018-07-10T17:38:14.740Z,15.30
2018-07-10T17:40:43.480Z,15.30
2018-07-10T17:43:12.076Z,15.30
2018-07-10T17:45:40.603Z,15.30
2018-07-10T17:48:09.096Z,15.20
2018-07-10T17:50:37.620Z,15.20
2018-07-10T17:53:06.193Z,15.30
2018-07-10T17:55:36.003Z,15.30
2018-07-10T17:58:06.270Z,15.20
2018-07-10T18:00:35.547Z,15.40
2018-07-10T18:03:04.142Z,15.10
2018-07-10T18:05:32.831Z,15.30
2018-07-10T18:08:01.496Z,15.10
2018-07-10T18:10:30.039Z,15.20
2018-07-10T18:12:58.707Z,15.20
2018-07-10T18:15:27.571Z,15.20
2018-07-10T18:20:24.551Z,15.30
2018-07-10T18:22:55.453Z,15.20
2018-07-10T18:25:26.189Z,15.50
2018-07-10T18:27:54.764Z,15.60
2018-07-10T18:30:23.445Z,15.60
2018-07-10T18:32:52.189Z,16.00
2018-07-10T18:35:20.958Z,15.60
2018-07-10T18:37:49.518Z,15.70
2018-07-10T18:40:18.044Z,15.70
2018-07-10T18:42:46.710Z,15.80
2018-07-10T18:45:15.525Z,15.70
2018-07-10T18:47:44.312Z,15.80
2018-07-10T18:50:13.045Z,15.80
2018-07-10T18:52:41.598Z,15.90
2018-07-10T18:55:10.301Z,15.80
2018-07-10T18:57:57.759Z,15.70
2018-07-10T19:00:36.791Z,15.60
2018-07-10T19:03:08.378Z,15.60
2018-07-10T19:05:44.471Z,15.50
2018-07-10T19:08:13.396Z,15.40
2018-07-10T19:10:43.552Z,15.40
2018-07-10T19:13:13.555Z,15.40
2018-07-10T19:15:44.441Z,15.40
2018-07-10T19:18:13.065Z,15.50
2018-07-10T19:20:47.501Z,15.50
2018-07-10T19:23:48.557Z,15.50
2018-07-10T19:26:19.402Z,15.40
2018-07-10T19:28:48.096Z,15.50
2018-07-10T19:31:20.956Z,15.50
2018-07-10T19:33:52.342Z,15.50
2018-07-10T19:36:20.852Z,15.50
2018-07-10T19:38:49.428Z,15.40
2018-07-10T19:41:19.403Z,15.50
2018-07-10T19:43:47.991Z,15.60
2018-07-10T19:46:16.605Z,15.60
2018-07-10T19:48:50.079Z,15.50
2018-07-10T19:51:21.766Z,15.40
2018-07-10T19:53:57.304Z,15.50
2018-07-10T19:56:25.977Z,15.40
2018-07-10T19:58:54.467Z,15.50
2018-07-10T20:01:28.427Z,15.40
2018-07-10T20:04:08.680Z,15.40
2018-07-10T20:06:44.365Z,15.40
2018-07-10T20:09:16.892Z,15.40
2018-07-10T20:11:51.095Z,15.40
2018-07-10T20:14:19.958Z,15.50
2018-07-10T20:16:56.667Z,15.50
2018-07-10T20:19:48.288Z,15.60
2018-07-10T20:23:31.300Z,15.60
2018-07-10T20:26:04.250Z,15.60
2018-07-10T20:28:53.769Z,15.60
2018-07-10T20:31:37.637Z,15.50
2018-07-10T20:34:16.962Z,15.50
2018-07-10T20:36:50.769Z,15.50
2018-07-10T20:39:19.368Z,15.50
2018-07-10T20:41:48.697Z,15.50
2018-07-10T20:44:18.987Z,15.40
2018-07-10T20:46:49.563Z,15.40
2018-07-10T20:49:18.339Z,15.40
2018-07-10T20:51:54.209Z,15.40
2018-07-10T20:54:35.026Z,15.40
2018-07-10T20:57:11.257Z,15.30
2018-07-10T20:59:42.747Z,15.30
2018-07-10T21:02:24.250Z,15.30
2018-07-10T21:05:13.589Z,15.30
2018-07-10T21:07:52.870Z,15.20
2018-07-10T21:10:29.765Z,15.10
2018-07-10T21:13:05.772Z,15.00
2018-07-10T21:16:01.339Z,15.00
2018-07-10T21:21:15.265Z,15.00
2018-07-10T21:24:18.889Z,14.90
2018-07-10T21:27:00.025Z,14.90
2018-07-10T21:29:41.202Z,14.90
2018-07-10T21:32:28.368Z,14.90
2018-07-10T21:34:58.321Z,14.90
2018-07-10T21:38:06.081Z,14.90
2018-07-10T21:42:52.584Z,14.90
2018-07-10T21:46:33.966Z,15.00
2018-07-10T21:49:20.808Z,14.90
2018-07-10T21:51:50.497Z,14.80
2018-07-10T21:54:19.027Z,14.70
2018-07-10T21:56:47.533Z,14.70
2018-07-10T21:59:18.090Z,14.80
2018-07-10T22:01:49.458Z,14.80
2018-07-10T22:04:22.773Z,14.70
2018-07-10T22:06:52.422Z,14.70
2018-07-10T22:09:22.437Z,14.70
2018-07-10T22:11:51.508Z,14.60
2018-07-10T22:14:20.220Z,14.60
2018-07-10T22:16:48.728Z,14.50
2018-07-10T22:19:21.872Z,14.50
2018-07-10T22:21:50.423Z,14.50
2018-07-10T22:24:19.246Z,14.40
2018-07-10T22:26:48.736Z,14.50
2018-07-10T22:29:22.901Z,14.50
2018-07-10T22:31:56.753Z,14.50
2018-07-10T22:34:25.308Z,14.60
2018-07-10T22:36:54.367Z,14.60
2018-07-10T22:39:22.906Z,14.60
2018-07-10T22:41:53.370Z,14.70
2018-07-10T22:44:24.401Z,14.70
2018-07-10T22:46:54.132Z,14.60
2018-07-10T22:49:22.837Z,14.60
2018-07-10T22:51:52.680Z,14.60
2018-07-10T22:54:21.931Z,14.50
2018-07-10T22:56:50.443Z,14.50
2018-07-10T22:59:19.031Z,14.50
2018-07-10T23:01:47.704Z,14.50
2018-07-10T23:04:16.234Z,14.40
2018-07-10T23:06:44.782Z,14.40
2018-07-10T23:09:13.412Z,14.30
2018-07-10T23:11:41.992Z,14.30
2018-07-10T23:14:10.507Z,14.30
2018-07-10T23:16:40.353Z,14.30
2018-07-10T23:19:09.266Z,14.30
2018-07-10T23:21:40.321Z,14.30
2018-07-10T23:24:09.422Z,14.20
2018-07-10T23:26:39.931Z,14.10
2018-07-10T23:29:08.486Z,14.10
2018-07-10T23:31:37.141Z,14.10
2018-07-10T23:34:11.656Z,14.00
2018-07-10T23:36:40.206Z,13.90
2018-07-10T23:39:10.473Z,13.90
2018-07-10T23:42:43.251Z,13.90
2018-07-10T23:45:21.333Z,13.80
2018-07-10T23:47:53.438Z,13.80
2018-07-10T23:50:25.469Z,13.80
2018-07-10T23:53:05.106Z,13.80
2018-07-10T23:55:33.650Z,13.80
2018-07-10T23:58:02.203Z,13.80
